Weather at Fagernes Airport, Leirin

Public forecast

Using degrees Celsius for public forecast. Weather courtesy of forecast.io.

Closest aviation weather report (METAR) to Fagernes Airport, Leirin

Closest report is Sogndal Airport, Hauk√•sen, 63.0 nm (116.7 km) W.

2024/05/22 20:50 (retrieved 32 minutes ago)

ENSG 222050Z AUTO 07006KT 040V110 9999 NCD 17/04 Q1017 RMK WIND 3806FT 11024KT

Closest aviation forecast (TAF) to Fagernes Airport, Leirin

Closest forecast is Oslo Airport, Gardermoen, 72.7 nm (134.6 km) SE.

2024/05/22 18:36 (retrieved 3 hours ago)

TAF ENGM 221700Z 2218/2318 14010KT CAVOK BECMG 2223/2301 04008KT BECMG 2309/2311 12012KT TEMPO 2314/2318 SHRA FEW030CB BKN040 PROB30 TEMPO 2314/2318 TS